sensor_id;sensor_type;location;lat;lon;timestamp;P1;durP1;ratioP1;P2;durP2;ratioP2
12052;SDS011;6087;48.982;12.064;2023-07-22T00:00:39;2.28;;;1.42;;
12052;SDS011;6087;48.982;12.064;2023-07-22T00:03:06;2.17;;;1.80;;
12052;SDS011;6087;48.982;12.064;2023-07-22T00:05:34;2.08;;;1.40;;
12052;SDS011;6087;48.982;12.064;2023-07-22T00:08:01;2.83;;;1.63;;
12052;SDS011;6087;48.982;12.064;2023-07-22T00:10:28;2.22;;;1.60;;
12052;SDS011;6087;48.982;12.064;2023-07-22T00:12:55;1.90;;;1.70;;
12052;SDS011;6087;48.982;12.064;2023-07-22T00:15:22;1.52;;;1.42;;
12052;SDS011;6087;48.982;12.064;2023-07-22T00:17:50;2.03;;;1.42;;
12052;SDS011;6087;48.982;12.064;2023-07-22T00:20:18;2.10;;;1.60;;
12052;SDS011;6087;48.982;12.064;2023-07-22T00:22:47;1.60;;;1.50;;
12052;SDS011;6087;48.982;12.064;2023-07-22T00:25:15;2.35;;;1.60;;
12052;SDS011;6087;48.982;12.064;2023-07-22T00:27:42;1.60;;;1.50;;
12052;SDS011;6087;48.982;12.064;2023-07-22T00:30:09;4.13;;;1.83;;
12052;SDS011;6087;48.982;12.064;2023-07-22T00:32:37;2.85;;;1.83;;
12052;SDS011;6087;48.982;12.064;2023-07-22T00:35:06;3.75;;;1.83;;
12052;SDS011;6087;48.982;12.064;2023-07-22T00:37:34;2.65;;;1.55;;
12052;SDS011;6087;48.982;12.064;2023-07-22T00:40:03;3.33;;;1.92;;
12052;SDS011;6087;48.982;12.064;2023-07-22T00:42:36;2.33;;;1.90;;
12052;SDS011;6087;48.982;12.064;2023-07-22T00:45:04;2.92;;;1.77;;
12052;SDS011;6087;48.982;12.064;2023-07-22T00:47:32;1.85;;;1.65;;
12052;SDS011;6087;48.982;12.064;2023-07-22T00:49:59;2.33;;;1.88;;
12052;SDS011;6087;48.982;12.064;2023-07-22T00:52:28;2.63;;;2.20;;
12052;SDS011;6087;48.982;12.064;2023-07-22T00:54:55;2.15;;;1.75;;
12052;SDS011;6087;48.982;12.064;2023-07-22T00:57:24;3.20;;;2.20;;
12052;SDS011;6087;48.982;12.064;2023-07-22T00:59:51;3.40;;;2.08;;
12052;SDS011;6087;48.982;12.064;2023-07-22T01:02:19;1.60;;;1.45;;
12052;SDS011;6087;48.982;12.064;2023-07-22T01:04:46;2.20;;;1.50;;
12052;SDS011;6087;48.982;12.064;2023-07-22T01:07:15;2.40;;;1.83;;
12052;SDS011;6087;48.982;12.064;2023-07-22T01:09:42;2.72;;;1.67;;
12052;SDS011;6087;48.982;12.064;2023-07-22T01:12:09;3.85;;;2.15;;
12052;SDS011;6087;48.982;12.064;2023-07-22T01:14:40;3.50;;;2.17;;
12052;SDS011;6087;48.982;12.064;2023-07-22T01:17:08;1.73;;;1.60;;
12052;SDS011;6087;48.982;12.064;2023-07-22T01:19:36;2.33;;;2.10;;
12052;SDS011;6087;48.982;12.064;2023-07-22T01:22:04;2.75;;;1.95;;
12052;SDS011;6087;48.982;12.064;2023-07-22T01:24:34;1.90;;;1.80;;
12052;SDS011;6087;48.982;12.064;2023-07-22T01:27:01;2.55;;;1.73;;
12052;SDS011;6087;48.982;12.064;2023-07-22T01:29:33;4.43;;;1.95;;
12052;SDS011;6087;48.982;12.064;2023-07-22T01:32:00;2.13;;;1.75;;
12052;SDS011;6087;48.982;12.064;2023-07-22T01:34:27;2.10;;;2.00;;
12052;SDS011;6087;48.982;12.064;2023-07-22T01:36:55;4.50;;;2.80;;
12052;SDS011;6087;48.982;12.064;2023-07-22T01:39:22;4.85;;;2.05;;
12052;SDS011;6087;48.982;12.064;2023-07-22T01:41:50;2.53;;;2.28;;
12052;SDS011;6087;48.982;12.064;2023-07-22T01:44:17;3.28;;;1.80;;
12052;SDS011;6087;48.982;12.064;2023-07-22T01:46:44;2.25;;;1.77;;
12052;SDS011;6087;48.982;12.064;2023-07-22T01:49:11;2.63;;;1.98;;
12052;SDS011;6087;48.982;12.064;2023-07-22T01:51:39;2.33;;;1.70;;
12052;SDS011;6087;48.982;12.064;2023-07-22T01:54:06;2.17;;;1.98;;
12052;SDS011;6087;48.982;12.064;2023-07-22T01:56:34;3.05;;;1.90;;
12052;SDS011;6087;48.982;12.064;2023-07-22T01:59:03;3.00;;;2.28;;
12052;SDS011;6087;48.982;12.064;2023-07-22T02:01:30;2.42;;;1.85;;
12052;SDS011;6087;48.982;12.064;2023-07-22T02:03:57;5.40;;;2.08;;
12052;SDS011;6087;48.982;12.064;2023-07-22T02:06:24;3.00;;;1.90;;
12052;SDS011;6087;48.982;12.064;2023-07-22T02:08:52;1.70;;;1.60;;
12052;SDS011;6087;48.982;12.064;2023-07-22T02:11:18;3.75;;;1.95;;
12052;SDS011;6087;48.982;12.064;2023-07-22T02:13:45;2.60;;;2.13;;
12052;SDS011;6087;48.982;12.064;2023-07-22T02:16:13;2.33;;;1.80;;
12052;SDS011;6087;48.982;12.064;2023-07-22T02:18:41;2.65;;;1.80;;
12052;SDS011;6087;48.982;12.064;2023-07-22T02:21:08;3.08;;;2.30;;
12052;SDS011;6087;48.982;12.064;2023-07-22T02:23:35;2.80;;;1.90;;
12052;SDS011;6087;48.982;12.064;2023-07-22T02:26:02;4.22;;;2.15;;
12052;SDS011;6087;48.982;12.064;2023-07-22T02:28:29;2.15;;;1.95;;
12052;SDS011;6087;48.982;12.064;2023-07-22T02:31:00;2.75;;;2.10;;
12052;SDS011;6087;48.982;12.064;2023-07-22T02:33:32;3.97;;;1.77;;
12052;SDS011;6087;48.982;12.064;2023-07-22T02:36:00;5.45;;;2.30;;
12052;SDS011;6087;48.982;12.064;2023-07-22T02:38:27;7.85;;;1.80;;
12052;SDS011;6087;48.982;12.064;2023-07-22T02:40:54;2.78;;;2.10;;
12052;SDS011;6087;48.982;12.064;2023-07-22T02:43:21;2.90;;;1.90;;
12052;SDS011;6087;48.982;12.064;2023-07-22T02:45:48;4.13;;;2.13;;
12052;SDS011;6087;48.982;12.064;2023-07-22T02:48:15;4.03;;;1.92;;
12052;SDS011;6087;48.982;12.064;2023-07-22T02:50:43;5.60;;;2.45;;
12052;SDS011;6087;48.982;12.064;2023-07-22T02:53:10;2.20;;;2.00;;
12052;SDS011;6087;48.982;12.064;2023-07-22T02:55:38;2.40;;;1.98;;
12052;SDS011;6087;48.982;12.064;2023-07-22T02:58:05;3.92;;;2.10;;
12052;SDS011;6087;48.982;12.064;2023-07-22T03:00:32;3.97;;;2.00;;
12052;SDS011;6087;48.982;12.064;2023-07-22T03:02:58;1.92;;;1.83;;
12052;SDS011;6087;48.982;12.064;2023-07-22T03:05:26;2.33;;;2.10;;
12052;SDS011;6087;48.982;12.064;2023-07-22T03:07:56;2.58;;;2.33;;
12052;SDS011;6087;48.982;12.064;2023-07-22T03:10:23;3.75;;;2.28;;
12052;SDS011;6087;48.982;12.064;2023-07-22T03:12:52;2.92;;;2.22;;
12052;SDS011;6087;48.982;12.064;2023-07-22T03:15:20;5.03;;;2.13;;
12052;SDS011;6087;48.982;12.064;2023-07-22T03:17:47;2.35;;;2.05;;
12052;SDS011;6087;48.982;12.064;2023-07-22T03:20:15;2.85;;;2.30;;
12052;SDS011;6087;48.982;12.064;2023-07-22T03:22:44;2.85;;;1.92;;
12052;SDS011;6087;48.982;12.064;2023-07-22T03:25:13;3.05;;;2.45;;
12052;SDS011;6087;48.982;12.064;2023-07-22T03:27:42;2.60;;;2.17;;
12052;SDS011;6087;48.982;12.064;2023-07-22T03:30:10;2.67;;;2.47;;
12052;SDS011;6087;48.982;12.064;2023-07-22T03:35:08;3.72;;;2.00;;
12052;SDS011;6087;48.982;12.064;2023-07-22T03:37:35;3.22;;;2.78;;
12052;SDS011;6087;48.982;12.064;2023-07-22T03:40:03;4.65;;;2.40;;
12052;SDS011;6087;48.982;12.064;2023-07-22T03:42:34;2.80;;;2.30;;
12052;SDS011;6087;48.982;12.064;2023-07-22T03:45:01;3.17;;;2.15;;
12052;SDS011;6087;48.982;12.064;2023-07-22T03:47:29;3.35;;;2.58;;
12052;SDS011;6087;48.982;12.064;2023-07-22T03:49:55;2.85;;;2.35;;
12052;SDS011;6087;48.982;12.064;2023-07-22T03:52:22;3.90;;;2.50;;
12052;SDS011;6087;48.982;12.064;2023-07-22T03:54:49;3.38;;;2.35;;
12052;SDS011;6087;48.982;12.064;2023-07-22T03:57:16;2.20;;;2.00;;
12052;SDS011;6087;48.982;12.064;2023-07-22T03:59:45;2.78;;;2.40;;
12052;SDS011;6087;48.982;12.064;2023-07-22T04:02:12;2.75;;;2.47;;
12052;SDS011;6087;48.982;12.064;2023-07-22T04:04:38;2.40;;;1.90;;
12052;SDS011;6087;48.982;12.064;2023-07-22T04:07:05;2.92;;;2.30;;
12052;SDS011;6087;48.982;12.064;2023-07-22T04:09:33;5.35;;;2.47;;
12052;SDS011;6087;48.982;12.064;2023-07-22T04:12:00;2.70;;;2.47;;
12052;SDS011;6087;48.982;12.064;2023-07-22T04:14:27;2.72;;;2.50;;
12052;SDS011;6087;48.982;12.064;2023-07-22T04:16:56;2.80;;;2.17;;
12052;SDS011;6087;48.982;12.064;2023-07-22T04:19:23;3.38;;;2.50;;
12052;SDS011;6087;48.982;12.064;2023-07-22T04:21:50;5.18;;;2.42;;
12052;SDS011;6087;48.982;12.064;2023-07-22T04:24:17;4.05;;;2.22;;
12052;SDS011;6087;48.982;12.064;2023-07-22T04:26:44;2.45;;;2.25;;
12052;SDS011;6087;48.982;12.064;2023-07-22T04:29:11;4.05;;;2.95;;
12052;SDS011;6087;48.982;12.064;2023-07-22T04:31:38;6.72;;;2.95;;
12052;SDS011;6087;48.982;12.064;2023-07-22T04:34:07;3.30;;;2.63;;
12052;SDS011;6087;48.982;12.064;2023-07-22T04:36:34;3.05;;;2.75;;
12052;SDS011;6087;48.982;12.064;2023-07-22T04:39:01;3.85;;;2.80;;
12052;SDS011;6087;48.982;12.064;2023-07-22T04:41:30;4.45;;;2.47;;
12052;SDS011;6087;48.982;12.064;2023-07-22T04:43:57;4.07;;;2.58;;
12052;SDS011;6087;48.982;12.064;2023-07-22T04:46:24;3.17;;;2.47;;
12052;SDS011;6087;48.982;12.064;2023-07-22T04:48:53;3.55;;;2.75;;
12052;SDS011;6087;48.982;12.064;2023-07-22T04:51:21;3.47;;;2.88;;
12052;SDS011;6087;48.982;12.064;2023-07-22T04:53:48;3.13;;;2.47;;
12052;SDS011;6087;48.982;12.064;2023-07-22T04:56:16;3.88;;;2.92;;
12052;SDS011;6087;48.982;12.064;2023-07-22T04:58:42;3.83;;;2.55;;
12052;SDS011;6087;48.982;12.064;2023-07-22T05:01:10;3.83;;;2.63;;
12052;SDS011;6087;48.982;12.064;2023-07-22T05:03:37;3.65;;;2.30;;
12052;SDS011;6087;48.982;12.064;2023-07-22T05:06:05;4.18;;;2.58;;
12052;SDS011;6087;48.982;12.064;2023-07-22T05:08:35;3.33;;;2.35;;
12052;SDS011;6087;48.982;12.064;2023-07-22T05:11:03;4.88;;;2.50;;
12052;SDS011;6087;48.982;12.064;2023-07-22T05:13:30;4.65;;;2.38;;
12052;SDS011;6087;48.982;12.064;2023-07-22T05:15:57;4.00;;;2.35;;
12052;SDS011;6087;48.982;12.064;2023-07-22T05:18:24;3.40;;;2.53;;
12052;SDS011;6087;48.982;12.064;2023-07-22T05:20:51;3.30;;;3.00;;
12052;SDS011;6087;48.982;12.064;2023-07-22T05:23:18;4.32;;;2.83;;
12052;SDS011;6087;48.982;12.064;2023-07-22T05:25:51;3.78;;;2.85;;
12052;SDS011;6087;48.982;12.064;2023-07-22T05:28:18;3.05;;;2.47;;
12052;SDS011;6087;48.982;12.064;2023-07-22T05:30:45;3.38;;;2.35;;
12052;SDS011;6087;48.982;12.064;2023-07-22T05:33:13;2.80;;;2.40;;
12052;SDS011;6087;48.982;12.064;2023-07-22T05:35:40;2.58;;;2.33;;
12052;SDS011;6087;48.982;12.064;2023-07-22T05:38:07;2.95;;;2.35;;
12052;SDS011;6087;48.982;12.064;2023-07-22T05:40:34;3.72;;;2.75;;
12052;SDS011;6087;48.982;12.064;2023-07-22T05:43:02;4.80;;;2.35;;
12052;SDS011;6087;48.982;12.064;2023-07-22T05:45:29;2.45;;;2.22;;
12052;SDS011;6087;48.982;12.064;2023-07-22T05:47:56;5.88;;;2.58;;
12052;SDS011;6087;48.982;12.064;2023-07-22T05:50:23;3.70;;;2.75;;
12052;SDS011;6087;48.982;12.064;2023-07-22T05:52:50;3.53;;;2.60;;
12052;SDS011;6087;48.982;12.064;2023-07-22T05:55:17;3.80;;;2.40;;
12052;SDS011;6087;48.982;12.064;2023-07-22T05:57:44;2.63;;;2.10;;
12052;SDS011;6087;48.982;12.064;2023-07-22T06:00:13;3.17;;;2.10;;
12052;SDS011;6087;48.982;12.064;2023-07-22T06:02:40;3.08;;;2.40;;
12052;SDS011;6087;48.982;12.064;2023-07-22T06:05:07;3.72;;;2.17;;
12052;SDS011;6087;48.982;12.064;2023-07-22T06:07:34;2.40;;;2.17;;
12052;SDS011;6087;48.982;12.064;2023-07-22T06:10:01;3.13;;;2.20;;
12052;SDS011;6087;48.982;12.064;2023-07-22T06:12:28;2.85;;;2.47;;
12052;SDS011;6087;48.982;12.064;2023-07-22T06:14:55;2.45;;;1.88;;
12052;SDS011;6087;48.982;12.064;2023-07-22T06:17:24;2.90;;;2.00;;
12052;SDS011;6087;48.982;12.064;2023-07-22T06:19:51;3.50;;;2.20;;
12052;SDS011;6087;48.982;12.064;2023-07-22T06:22:18;2.53;;;2.22;;
12052;SDS011;6087;48.982;12.064;2023-07-22T06:24:44;2.13;;;1.90;;
12052;SDS011;6087;48.982;12.064;2023-07-22T06:27:11;2.35;;;2.15;;
12052;SDS011;6087;48.982;12.064;2023-07-22T06:29:38;2.20;;;2.00;;
12052;SDS011;6087;48.982;12.064;2023-07-22T06:32:05;2.88;;;2.50;;
12052;SDS011;6087;48.982;12.064;2023-07-22T06:34:34;2.75;;;2.40;;
12052;SDS011;6087;48.982;12.064;2023-07-22T06:37:01;2.58;;;2.38;;
12052;SDS011;6087;48.982;12.064;2023-07-22T06:39:28;3.38;;;2.08;;
12052;SDS011;6087;48.982;12.064;2023-07-22T06:41:55;2.38;;;2.17;;
12052;SDS011;6087;48.982;12.064;2023-07-22T06:44:22;3.67;;;2.67;;
12052;SDS011;6087;48.982;12.064;2023-07-22T06:46:49;3.85;;;2.55;;
12052;SDS011;6087;48.982;12.064;2023-07-22T06:49:16;3.47;;;2.72;;
12052;SDS011;6087;48.982;12.064;2023-07-22T06:51:44;3.58;;;2.33;;
12052;SDS011;6087;48.982;12.064;2023-07-22T06:54:11;2.30;;;2.10;;
12052;SDS011;6087;48.982;12.064;2023-07-22T06:56:38;3.97;;;2.30;;
12052;SDS011;6087;48.982;12.064;2023-07-22T06:59:05;5.05;;;2.55;;
12052;SDS011;6087;48.982;12.064;2023-07-22T07:01:32;4.55;;;2.42;;
12052;SDS011;6087;48.982;12.064;2023-07-22T07:03:59;3.85;;;2.45;;
12052;SDS011;6087;48.982;12.064;2023-07-22T07:06:26;2.80;;;2.60;;
12052;SDS011;6087;48.982;12.064;2023-07-22T07:08:55;3.20;;;2.67;;
12052;SDS011;6087;48.982;12.064;2023-07-22T07:11:25;2.47;;;2.28;;
12052;SDS011;6087;48.982;12.064;2023-07-22T07:13:52;2.38;;;2.17;;
12052;SDS011;6087;48.982;12.064;2023-07-22T07:16:20;2.25;;;2.13;;
12052;SDS011;6087;48.982;12.064;2023-07-22T07:18:48;2.35;;;2.15;;
12052;SDS011;6087;48.982;12.064;2023-07-22T07:21:15;2.22;;;2.03;;
12052;SDS011;6087;48.982;12.064;2023-07-22T07:23:43;2.30;;;2.10;;
12052;SDS011;6087;48.982;12.064;2023-07-22T07:26:11;3.20;;;2.72;;
12052;SDS011;6087;48.982;12.064;2023-07-22T07:28:38;2.65;;;2.22;;
12052;SDS011;6087;48.982;12.064;2023-07-22T07:31:05;3.30;;;2.22;;
12052;SDS011;6087;48.982;12.064;2023-07-22T07:33:32;2.67;;;2.03;;
12052;SDS011;6087;48.982;12.064;2023-07-22T07:35:59;2.72;;;2.10;;
12052;SDS011;6087;48.982;12.064;2023-07-22T07:38:26;2.47;;;1.90;;
12052;SDS011;6087;48.982;12.064;2023-07-22T07:40:55;2.53;;;2.05;;
12052;SDS011;6087;48.982;12.064;2023-07-22T07:43:24;2.00;;;1.67;;
12052;SDS011;6087;48.982;12.064;2023-07-22T07:45:59;2.42;;;2.10;;
12052;SDS011;6087;48.982;12.064;2023-07-22T07:48:39;3.50;;;2.00;;
12052;SDS011;6087;48.982;12.064;2023-07-22T07:51:06;2.78;;;1.90;;
12052;SDS011;6087;48.982;12.064;2023-07-22T07:53:33;3.80;;;2.28;;
12052;SDS011;6087;48.982;12.064;2023-07-22T07:56:00;4.10;;;1.77;;
12052;SDS011;6087;48.982;12.064;2023-07-22T07:58:28;2.92;;;2.08;;
12052;SDS011;6087;48.982;12.064;2023-07-22T08:00:55;2.20;;;1.95;;
12052;SDS011;6087;48.982;12.064;2023-07-22T08:03:22;3.10;;;1.92;;
12052;SDS011;6087;48.982;12.064;2023-07-22T08:05:49;4.03;;;2.38;;
12052;SDS011;6087;48.982;12.064;2023-07-22T08:08:16;2.45;;;1.98;;
12052;SDS011;6087;48.982;12.064;2023-07-22T08:10:43;3.25;;;1.90;;
12052;SDS011;6087;48.982;12.064;2023-07-22T08:13:10;5.38;;;2.30;;
12052;SDS011;6087;48.982;12.064;2023-07-22T08:15:38;1.83;;;1.73;;
12052;SDS011;6087;48.982;12.064;2023-07-22T08:18:06;2.00;;;1.80;;
12052;SDS011;6087;48.982;12.064;2023-07-22T08:20:33;1.85;;;1.55;;
12052;SDS011;6087;48.982;12.064;2023-07-22T08:23:00;2.45;;;2.03;;
12052;SDS011;6087;48.982;12.064;2023-07-22T08:25:27;3.33;;;1.73;;
12052;SDS011;6087;48.982;12.064;2023-07-22T08:27:54;2.60;;;1.65;;
12052;SDS011;6087;48.982;12.064;2023-07-22T08:30:21;2.70;;;1.92;;
12052;SDS011;6087;48.982;12.064;2023-07-22T08:32:49;2.20;;;2.00;;
12052;SDS011;6087;48.982;12.064;2023-07-22T08:35:16;2.38;;;1.90;;
12052;SDS011;6087;48.982;12.064;2023-07-22T08:37:44;4.60;;;1.70;;
12052;SDS011;6087;48.982;12.064;2023-07-22T08:40:12;2.10;;;1.92;;
12052;SDS011;6087;48.982;12.064;2023-07-22T08:42:39;2.67;;;1.98;;
12052;SDS011;6087;48.982;12.064;2023-07-22T08:45:08;3.90;;;2.22;;
12052;SDS011;6087;48.982;12.064;2023-07-22T08:47:37;2.95;;;1.83;;
12052;SDS011;6087;48.982;12.064;2023-07-22T08:50:11;1.85;;;1.52;;
12052;SDS011;6087;48.982;12.064;2023-07-22T08:52:42;1.95;;;1.85;;
12052;SDS011;6087;48.982;12.064;2023-07-22T08:55:10;3.20;;;1.77;;
12052;SDS011;6087;48.982;12.064;2023-07-22T08:57:38;1.85;;;1.70;;
12052;SDS011;6087;48.982;12.064;2023-07-22T09:00:06;2.17;;;1.63;;
12052;SDS011;6087;48.982;12.064;2023-07-22T09:02:36;1.85;;;1.70;;
12052;SDS011;6087;48.982;12.064;2023-07-22T09:05:05;4.65;;;1.80;;
12052;SDS011;6087;48.982;12.064;2023-07-22T09:07:34;1.77;;;1.60;;
12052;SDS011;6087;48.982;12.064;2023-07-22T09:10:03;1.52;;;1.33;;
12052;SDS011;6087;48.982;12.064;2023-07-22T09:12:32;1.98;;;1.80;;
12052;SDS011;6087;48.982;12.064;2023-07-22T09:15:05;1.80;;;1.70;;
12052;SDS011;6087;48.982;12.064;2023-07-22T09:17:35;2.65;;;1.70;;
12052;SDS011;6087;48.982;12.064;2023-07-22T09:20:03;2.60;;;1.80;;
12052;SDS011;6087;48.982;12.064;2023-07-22T09:22:31;2.33;;;1.73;;
12052;SDS011;6087;48.982;12.064;2023-07-22T09:25:13;1.48;;;1.38;;
12052;SDS011;6087;48.982;12.064;2023-07-22T09:27:41;1.80;;;1.55;;
12052;SDS011;6087;48.982;12.064;2023-07-22T09:32:52;1.80;;;1.50;;
12052;SDS011;6087;48.982;12.064;2023-07-22T18:36:54;2.53;;;1.55;;
12052;SDS011;6087;48.982;12.064;2023-07-22T18:39:21;1.88;;;1.50;;
12052;SDS011;6087;48.982;12.064;2023-07-22T18:41:48;3.08;;;1.50;;
12052;SDS011;6087;48.982;12.064;2023-07-22T18:44:15;1.75;;;1.50;;
12052;SDS011;6087;48.982;12.064;2023-07-22T18:46:42;2.88;;;1.70;;
12052;SDS011;6087;48.982;12.064;2023-07-22T18:49:09;2.35;;;1.58;;
12052;SDS011;6087;48.982;12.064;2023-07-22T18:51:36;1.65;;;1.55;;
12052;SDS011;6087;48.982;12.064;2023-07-22T18:54:04;2.55;;;1.30;;
12052;SDS011;6087;48.982;12.064;2023-07-22T18:56:31;1.98;;;1.70;;
12052;SDS011;6087;48.982;12.064;2023-07-22T18:58:58;2.63;;;1.75;;
12052;SDS011;6087;48.982;12.064;2023-07-22T19:01:25;2.10;;;1.30;;
12052;SDS011;6087;48.982;12.064;2023-07-22T19:03:52;1.83;;;1.65;;
12052;SDS011;6087;48.982;12.064;2023-07-22T19:06:19;2.25;;;1.60;;
12052;SDS011;6087;48.982;12.064;2023-07-22T19:08:46;3.67;;;1.75;;
12052;SDS011;6087;48.982;12.064;2023-07-22T19:11:14;2.25;;;1.90;;
12052;SDS011;6087;48.982;12.064;2023-07-22T19:13:41;2.08;;;1.88;;
12052;SDS011;6087;48.982;12.064;2023-07-22T19:16:08;1.90;;;1.77;;
12052;SDS011;6087;48.982;12.064;2023-07-22T19:18:35;3.25;;;1.80;;
12052;SDS011;6087;48.982;12.064;2023-07-22T19:21:02;2.22;;;2.03;;
12052;SDS011;6087;48.982;12.064;2023-07-22T19:23:29;2.25;;;2.03;;
12052;SDS011;6087;48.982;12.064;2023-07-22T19:25:57;1.98;;;1.75;;
12052;SDS011;6087;48.982;12.064;2023-07-22T19:28:27;2.63;;;1.77;;
12052;SDS011;6087;48.982;12.064;2023-07-22T19:30:54;1.85;;;1.75;;
12052;SDS011;6087;48.982;12.064;2023-07-22T19:33:22;1.70;;;1.58;;
12052;SDS011;6087;48.982;12.064;2023-07-22T19:35:58;2.85;;;1.75;;
12052;SDS011;6087;48.982;12.064;2023-07-22T19:38:26;4.55;;;1.83;;
12052;SDS011;6087;48.982;12.064;2023-07-22T19:41:00;4.03;;;2.00;;
12052;SDS011;6087;48.982;12.064;2023-07-22T19:43:30;2.15;;;2.00;;
12052;SDS011;6087;48.982;12.064;2023-07-22T19:46:01;6.65;;;2.08;;
12052;SDS011;6087;48.982;12.064;2023-07-22T19:48:29;4.80;;;2.05;;
12052;SDS011;6087;48.982;12.064;2023-07-22T19:50:57;2.05;;;1.80;;
12052;SDS011;6087;48.982;12.064;2023-07-22T19:53:24;4.35;;;2.15;;
12052;SDS011;6087;48.982;12.064;2023-07-22T19:55:51;3.35;;;2.28;;
12052;SDS011;6087;48.982;12.064;2023-07-22T19:58:18;4.18;;;1.80;;
12052;SDS011;6087;48.982;12.064;2023-07-22T20:00:48;2.72;;;2.22;;
12052;SDS011;6087;48.982;12.064;2023-07-22T20:03:16;1.67;;;1.48;;
12052;SDS011;6087;48.982;12.064;2023-07-22T20:05:43;4.10;;;2.13;;
12052;SDS011;6087;48.982;12.064;2023-07-22T20:08:10;2.42;;;1.90;;
12052;SDS011;6087;48.982;12.064;2023-07-22T20:10:37;2.42;;;1.92;;
12052;SDS011;6087;48.982;12.064;2023-07-22T20:13:04;3.65;;;2.13;;
12052;SDS011;6087;48.982;12.064;2023-07-22T20:15:32;2.28;;;2.03;;
12052;SDS011;6087;48.982;12.064;2023-07-22T20:18:01;2.25;;;1.55;;
12052;SDS011;6087;48.982;12.064;2023-07-22T20:20:28;4.13;;;2.35;;
12052;SDS011;6087;48.982;12.064;2023-07-22T20:22:55;2.85;;;1.77;;
12052;SDS011;6087;48.982;12.064;2023-07-22T20:25:22;3.58;;;2.15;;
12052;SDS011;6087;48.982;12.064;2023-07-22T20:27:50;2.83;;;1.80;;
12052;SDS011;6087;48.982;12.064;2023-07-22T20:30:18;4.72;;;1.88;;
12052;SDS011;6087;48.982;12.064;2023-07-22T20:32:45;3.10;;;2.17;;
12052;SDS011;6087;48.982;12.064;2023-07-22T20:35:13;2.05;;;1.88;;
12052;SDS011;6087;48.982;12.064;2023-07-22T20:37:41;2.42;;;1.90;;
12052;SDS011;6087;48.982;12.064;2023-07-22T20:40:09;3.58;;;1.70;;
12052;SDS011;6087;48.982;12.064;2023-07-22T20:42:39;2.70;;;2.10;;
12052;SDS011;6087;48.982;12.064;2023-07-22T20:45:07;3.33;;;1.80;;
12052;SDS011;6087;48.982;12.064;2023-07-22T20:47:34;1.92;;;1.83;;
12052;SDS011;6087;48.982;12.064;2023-07-22T20:50:01;4.07;;;1.77;;
12052;SDS011;6087;48.982;12.064;2023-07-22T20:52:29;3.30;;;1.80;;
12052;SDS011;6087;48.982;12.064;2023-07-22T20:54:57;2.10;;;1.92;;
12052;SDS011;6087;48.982;12.064;2023-07-22T20:57:24;3.65;;;2.03;;
12052;SDS011;6087;48.982;12.064;2023-07-22T20:59:54;2.47;;;1.75;;
12052;SDS011;6087;48.982;12.064;2023-07-22T21:02:21;3.40;;;2.03;;
12052;SDS011;6087;48.982;12.064;2023-07-22T21:04:50;2.53;;;2.30;;
12052;SDS011;6087;48.982;12.064;2023-07-22T21:07:18;3.95;;;2.25;;
12052;SDS011;6087;48.982;12.064;2023-07-22T21:09:46;2.70;;;1.73;;
12052;SDS011;6087;48.982;12.064;2023-07-22T21:12:13;3.53;;;1.88;;
12052;SDS011;6087;48.982;12.064;2023-07-22T21:14:40;2.47;;;1.75;;
12052;SDS011;6087;48.982;12.064;2023-07-22T21:17:07;1.92;;;1.58;;
12052;SDS011;6087;48.982;12.064;2023-07-22T21:19:34;3.10;;;1.70;;
12052;SDS011;6087;48.982;12.064;2023-07-22T21:22:01;5.45;;;2.45;;
12052;SDS011;6087;48.982;12.064;2023-07-22T21:24:28;4.90;;;1.90;;
12052;SDS011;6087;48.982;12.064;2023-07-22T21:26:57;1.92;;;1.77;;
12052;SDS011;6087;48.982;12.064;2023-07-22T21:29:24;2.40;;;1.98;;
12052;SDS011;6087;48.982;12.064;2023-07-22T21:31:51;2.50;;;2.03;;
12052;SDS011;6087;48.982;12.064;2023-07-22T21:34:18;2.95;;;2.10;;
12052;SDS011;6087;48.982;12.064;2023-07-22T21:36:45;3.47;;;2.33;;
12052;SDS011;6087;48.982;12.064;2023-07-22T21:39:12;3.22;;;2.08;;
12052;SDS011;6087;48.982;12.064;2023-07-22T21:41:39;3.65;;;2.33;;
12052;SDS011;6087;48.982;12.064;2023-07-22T21:44:07;2.83;;;2.10;;
12052;SDS011;6087;48.982;12.064;2023-07-22T21:46:34;2.67;;;2.10;;
12052;SDS011;6087;48.982;12.064;2023-07-22T21:49:01;5.63;;;2.40;;
12052;SDS011;6087;48.982;12.064;2023-07-22T21:51:28;5.88;;;2.33;;
12052;SDS011;6087;48.982;12.064;2023-07-22T21:53:55;3.63;;;2.50;;
12052;SDS011;6087;48.982;12.064;2023-07-22T21:56:22;5.05;;;2.60;;
12052;SDS011;6087;48.982;12.064;2023-07-22T21:58:49;2.90;;;2.05;;
12052;SDS011;6087;48.982;12.064;2023-07-22T22:01:17;3.25;;;2.63;;
12052;SDS011;6087;48.982;12.064;2023-07-22T22:03:44;3.90;;;2.67;;
12052;SDS011;6087;48.982;12.064;2023-07-22T22:06:11;2.85;;;2.33;;
12052;SDS011;6087;48.982;12.064;2023-07-22T22:08:38;2.53;;;1.92;;
12052;SDS011;6087;48.982;12.064;2023-07-22T22:11:05;5.03;;;2.50;;
12052;SDS011;6087;48.982;12.064;2023-07-22T22:13:33;3.30;;;2.38;;
12052;SDS011;6087;48.982;12.064;2023-07-22T22:16:00;2.47;;;2.20;;
12052;SDS011;6087;48.982;12.064;2023-07-22T22:18:29;2.50;;;2.22;;
12052;SDS011;6087;48.982;12.064;2023-07-22T22:20:56;2.92;;;2.05;;
12052;SDS011;6087;48.982;12.064;2023-07-22T22:23:23;5.68;;;2.20;;
12052;SDS011;6087;48.982;12.064;2023-07-22T22:25:49;5.35;;;2.00;;
12052;SDS011;6087;48.982;12.064;2023-07-22T22:28:16;3.35;;;2.53;;
12052;SDS011;6087;48.982;12.064;2023-07-22T22:30:43;2.67;;;2.47;;
12052;SDS011;6087;48.982;12.064;2023-07-22T22:33:10;3.70;;;2.30;;
12052;SDS011;6087;48.982;12.064;2023-07-22T22:35:41;3.38;;;2.20;;
12052;SDS011;6087;48.982;12.064;2023-07-22T22:38:08;3.00;;;2.28;;
12052;SDS011;6087;48.982;12.064;2023-07-22T22:40:34;5.13;;;2.38;;
12052;SDS011;6087;48.982;12.064;2023-07-22T22:43:04;3.13;;;2.70;;
12052;SDS011;6087;48.982;12.064;2023-07-22T22:45:31;2.63;;;2.42;;
12052;SDS011;6087;48.982;12.064;2023-07-22T22:47:58;2.72;;;2.38;;
12052;SDS011;6087;48.982;12.064;2023-07-22T22:50:25;2.90;;;2.17;;
12052;SDS011;6087;48.982;12.064;2023-07-22T22:52:53;2.63;;;2.17;;
12052;SDS011;6087;48.982;12.064;2023-07-22T22:55:20;5.25;;;2.72;;
12052;SDS011;6087;48.982;12.064;2023-07-22T22:57:47;3.60;;;2.50;;
12052;SDS011;6087;48.982;12.064;2023-07-22T23:00:14;3.70;;;2.53;;
12052;SDS011;6087;48.982;12.064;2023-07-22T23:02:41;2.80;;;2.33;;
12052;SDS011;6087;48.982;12.064;2023-07-22T23:05:11;3.33;;;2.53;;
12052;SDS011;6087;48.982;12.064;2023-07-22T23:07:38;4.03;;;2.28;;
12052;SDS011;6087;48.982;12.064;2023-07-22T23:10:07;6.78;;;2.72;;
12052;SDS011;6087;48.982;12.064;2023-07-22T23:12:34;6.40;;;3.10;;
12052;SDS011;6087;48.982;12.064;2023-07-22T23:15:05;3.92;;;2.28;;
12052;SDS011;6087;48.982;12.064;2023-07-22T23:17:33;4.78;;;2.63;;
12052;SDS011;6087;48.982;12.064;2023-07-22T23:20:02;6.07;;;3.13;;
12052;SDS011;6087;48.982;12.064;2023-07-22T23:22:30;5.45;;;2.88;;
12052;SDS011;6087;48.982;12.064;2023-07-22T23:24:57;4.65;;;3.00;;
12052;SDS011;6087;48.982;12.064;2023-07-22T23:27:26;4.25;;;2.60;;
12052;SDS011;6087;48.982;12.064;2023-07-22T23:29:55;2.53;;;2.33;;
12052;SDS011;6087;48.982;12.064;2023-07-22T23:32:22;4.38;;;2.70;;
12052;SDS011;6087;48.982;12.064;2023-07-22T23:34:49;6.82;;;3.17;;
12052;SDS011;6087;48.982;12.064;2023-07-22T23:37:17;6.85;;;3.05;;
12052;SDS011;6087;48.982;12.064;2023-07-22T23:39:44;3.67;;;3.03;;
12052;SDS011;6087;48.982;12.064;2023-07-22T23:42:10;3.10;;;2.40;;
12052;SDS011;6087;48.982;12.064;2023-07-22T23:44:39;5.13;;;3.10;;
12052;SDS011;6087;48.982;12.064;2023-07-22T23:47:07;4.88;;;2.67;;
12052;SDS011;6087;48.982;12.064;2023-07-22T23:49:34;3.47;;;2.20;;
12052;SDS011;6087;48.982;12.064;2023-07-22T23:52:01;3.65;;;2.42;;
12052;SDS011;6087;48.982;12.064;2023-07-22T23:54:28;3.90;;;2.60;;
12052;SDS011;6087;48.982;12.064;2023-07-22T23:56:55;2.90;;;2.38;;